Time;durP1;ratioP1;P1;durP2;ratioP2;P2;SDS_P1;SDS_P2;PMS_P1;PMS_P2;Temp;Humidity;BMP_temperature;BMP_pressure;BME280_temperature;BME280_humidity;BME280_pressure;Samples;Min_cycle;Max_cycle;Signal;HPM_P1;HPM_P2
2023/04/11 00:01:45;;;;;;;4.88;2.83;;;;;;;8.02;56.48;100454.88;5023808;28;20029;-72
2023/04/11 00:04:11;;;;;;;9.65;3.30;;;;;;;7.69;57.06;100460.38;5027294;28;20033;-72
2023/04/11 00:06:36;;;;;;;9.43;3.92;;;;;;;7.92;56.50;100453.50;5010572;28;20033;-70
2023/04/11 00:09:02;;;;;;;11.25;3.80;;;;;;;8.14;55.43;100448.38;5000500;28;20033;-71
2023/04/11 00:11:28;;;;;;;8.52;3.22;;;;;;;7.48;57.14;100442.84;5039073;28;20482;-71
2023/04/11 00:13:57;;;;;;;5.78;2.40;;;;;;;7.83;56.35;100446.88;5039010;28;20040;-70
2023/04/11 00:16:24;;;;;;;10.60;4.00;;;;;;;7.69;56.60;100446.50;5026436;28;20513;-70
2023/04/11 00:18:50;;;;;;;8.80;3.63;;;;;;;7.93;55.98;100434.38;5023140;28;20033;-70
2023/04/11 00:21:15;;;;;;;21.25;4.03;;;;;;;8.09;55.55;100427.72;5024756;28;20102;-71
2023/04/11 00:23:41;;;;;;;14.88;3.63;;;;;;;8.25;54.64;100425.41;5022895;28;20041;-70
2023/04/11 00:26:07;;;;;;;7.55;3.70;;;;;;;8.36;54.50;100420.66;5024042;28;20061;-72
2023/04/11 00:28:33;;;;;;;8.07;3.40;;;;;;;8.26;54.69;100421.88;5025322;28;20215;-71
2023/04/11 00:30:58;;;;;;;9.52;4.32;;;;;;;8.15;54.88;100416.22;5015206;28;20040;-71
2023/04/11 00:33:24;;;;;;;12.75;4.40;;;;;;;8.22;54.80;100427.25;5011611;28;20032;-71
2023/04/11 00:35:49;;;;;;;7.85;3.67;;;;;;;7.94;55.53;100426.53;5018741;28;20132;-70
2023/04/11 00:38:15;;;;;;;8.88;4.10;;;;;;;7.65;56.29;100434.53;5010427;28;20125;-71
2023/04/11 00:40:43;;;;;;;11.15;4.55;;;;;;;7.21;57.60;100419.47;5038783;28;20147;-71
2023/04/11 00:43:08;;;;;;;12.77;4.45;;;;;;;8.14;55.34;100422.34;5025819;28;20029;-70
2023/04/11 00:45:35;;;;;;;16.02;4.80;;;;;;;7.73;56.55;100433.34;5023291;28;20043;-71
2023/04/11 00:48:01;;;;;;;12.63;5.43;;;;;;;7.93;56.57;100431.78;5041123;28;20101;-72
2023/04/11 00:50:27;;;;;;;5.50;2.38;;;;;;;6.74;57.80;100444.41;4987358;28;20044;-72
2023/04/11 00:52:55;;;;;;;5.50;1.35;;;;;;;5.65;58.70;100472.50;5038851;28;20232;-72
2023/04/11 00:55:21;;;;;;;4.05;0.43;;;;;;;4.68;59.81;100489.47;5025265;28;20124;-72
2023/04/11 00:57:46;;;;;;;6.03;0.73;;;;;;;4.64;59.01;100485.22;5022130;28;20117;-70
2023/04/11 01:00:13;;;;;;;5.68;0.20;;;;;;;4.52;59.73;100512.22;5025415;28;20142;-70
2023/04/11 01:02:41;;;;;;;1.88;0.10;;;;;;;4.95;58.21;100503.56;5008941;28;20132;-71
2023/04/11 01:05:13;;;;;;;1.00;0.15;;;;;;;4.88;58.03;100495.94;5010671;28;20183;-71
2023/04/11 01:07:42;;;;;;;2.45;0.20;;;;;;;4.93;58.09;100496.72;5037130;28;20490;-72
2023/04/11 01:10:09;;;;;;;2.50;0.30;;;;;;;4.61;59.51;100487.91;5009838;28;20079;-69
2023/04/11 01:12:35;;;;;;;2.92;0.40;;;;;;;4.92;58.86;100497.59;5028180;28;20128;-70
2023/04/11 01:15:01;;;;;;;3.45;0.20;;;;;;;4.74;59.66;100489.31;5009406;28;20036;-69
2023/04/11 01:17:27;;;;;;;3.63;0.17;;;;;;;4.97;59.22;100467.28;5022729;28;20155;-69
2023/04/11 01:19:53;;;;;;;3.25;0.40;;;;;;;4.23;60.46;100471.44;5000721;28;20538;-69
2023/04/11 01:22:21;;;;;;;3.55;0.30;;;;;;;4.19;60.58;100452.50;5039624;28;20204;-68
2023/04/11 01:24:48;;;;;;;4.00;0.45;;;;;;;4.03;61.68;100445.94;5017917;28;20763;-68
2023/04/11 01:27:13;;;;;;;2.63;0.50;;;;;;;4.67;59.75;100427.34;5027259;28;20032;-67
2023/04/11 01:29:39;;;;;;;6.90;0.73;;;;;;;4.86;58.62;100420.88;5017986;28;20041;-70
2023/04/11 01:32:05;;;;;;;4.10;0.77;;;;;;;4.74;59.05;100429.75;5009483;28;20037;-72
2023/04/11 01:34:32;;;;;;;1.92;0.20;;;;;;;4.60;58.73;100431.81;5024991;28;20116;-71
2023/04/11 01:36:58;;;;;;;1.80;0.20;;;;;;;5.02;57.95;100429.16;5023694;28;20047;-74
2023/04/11 01:39:23;;;;;;;5.18;0.43;;;;;;;4.87;58.37;100445.88;5022807;28;20049;-68
2023/04/11 01:41:50;;;;;;;1.05;0.10;;;;;;;5.00;57.88;100425.75;5018904;28;20056;-67
2023/04/11 01:44:18;;;;;;;2.35;0.20;;;;;;;5.31;56.99;100417.22;5025042;28;20611;-72
2023/04/11 01:46:44;;;;;;;1.75;0.10;;;;;;;5.14;56.85;100413.31;5023558;28;20459;-71
2023/04/11 01:49:14;;;;;;;0.40;0.10;;;;;;;4.79;57.95;100416.72;5027810;28;20195;-69
2023/04/11 01:51:40;;;;;;;3.28;0.38;;;;;;;4.62;58.56;100430.03;5022485;28;20031;-68
2023/04/11 01:54:06;;;;;;;0.60;0.10;;;;;;;5.00;56.98;100436.13;5024029;28;20033;-68
2023/04/11 01:56:32;;;;;;;3.47;0.20;;;;;;;5.18;57.05;100440.84;5023250;28;20540;-71
2023/04/11 01:58:57;;;;;;;1.27;0.10;;;;;;;5.11;56.75;100446.22;5021423;28;20030;-70
2023/04/11 02:01:24;;;;;;;3.72;0.15;;;;;;;4.81;57.04;100439.13;5025154;28;20072;-70
2023/04/11 02:03:50;;;;;;;4.10;0.30;;;;;;;5.58;55.45;100442.44;5038858;28;20044;-70
2023/04/11 02:06:15;;;;;;;1.38;0.13;;;;;;;5.24;56.37;100451.06;5027767;28;20037;-72
2023/04/11 02:08:42;;;;;;;2.22;0.40;;;;;;;5.31;56.21;100451.75;5008949;28;20037;-73
2023/04/11 02:11:08;;;;;;;5.85;0.20;;;;;;;5.62;55.17;100451.84;5028706;28;20037;-72
2023/04/11 02:13:34;;;;;;;1.20;0.20;;;;;;;5.43;55.48;100445.41;5025731;28;20417;-71
2023/04/11 02:16:13;;;;;;;0.57;0.10;;;;;;;5.75;54.98;100454.97;5028088;28;20124;-73
2023/04/11 02:18:40;;;;;;;1.80;0.20;;;;;;;5.10;56.06;100458.34;5040749;28;20032;-72
2023/04/11 02:21:06;;;;;;;1.63;0.25;;;;;;;5.37;55.88;100454.22;5027963;28;20263;-72
2023/04/11 02:23:33;;;;;;;0.95;0.20;;;;;;;5.01;56.95;100453.34;5030051;28;20094;-72
2023/04/11 02:26:00;;;;;;;2.47;0.52;;;;;;;4.91;56.96;100451.88;5021410;28;20040;-72
2023/04/11 02:28:26;;;;;;;3.65;0.30;;;;;;;5.05;56.76;100449.81;5030528;28;20639;-72
2023/04/11 02:30:52;;;;;;;2.28;0.20;;;;;;;5.37;56.00;100455.94;5019092;28;20044;-72
2023/04/11 02:33:18;;;;;;;1.05;0.20;;;;;;;5.16;56.39;100452.97;5026109;28;20025;-72
2023/04/11 02:35:45;;;;;;;2.80;0.25;;;;;;;5.44;55.37;100465.28;5026020;28;20068;-73
2023/04/11 02:38:10;;;;;;;1.38;0.17;;;;;;;4.93;56.97;100460.47;5023448;28;20041;-72
2023/04/11 02:40:36;;;;;;;4.00;0.38;;;;;;;4.93;57.06;100466.47;5024378;28;20047;-73
2023/04/11 02:43:01;;;;;;;2.97;0.50;;;;;;;5.33;55.89;100469.88;5010698;28;20056;-73
2023/04/11 02:45:28;;;;;;;4.57;0.20;;;;;;;5.45;55.69;100469.56;5026765;28;20036;-73
2023/04/11 02:47:53;;;;;;;3.63;0.43;;;;;;;5.13;56.20;100463.44;5021574;28;20094;-70
2023/04/11 02:50:19;;;;;;;3.28;0.20;;;;;;;4.98;57.04;100471.56;4985678;28;20045;-70
2023/04/11 02:52:48;;;;;;;4.03;0.60;;;;;;;4.59;57.57;100474.13;5035845;28;20033;-70
2023/04/11 02:55:16;;;;;;;6.53;0.35;;;;;;;4.52;58.06;100475.13;5027585;28;20059;-70
2023/04/11 02:57:42;;;;;;;4.90;0.30;;;;;;;4.75;56.49;100472.91;5026328;28;20436;-72
2023/04/11 03:00:11;;;;;;;3.90;0.30;;;;;;;4.86;56.47;100469.22;5027254;28;20563;-72
2023/04/11 03:02:44;;;;;;;6.72;0.77;;;;;;;3.87;59.57;100480.72;5025013;28;20034;-73
2023/04/11 03:05:10;;;;;;;3.25;0.63;;;;;;;4.42;57.73;100474.47;4996637;28;20051;-70
2023/04/11 03:07:39;;;;;;;3.60;0.50;;;;;;;3.73;59.32;100474.06;5025509;28;20123;-67
2023/04/11 03:10:05;;;;;;;4.20;0.50;;;;;;;3.88;59.09;100464.34;5013953;28;20036;-70
2023/04/11 03:12:32;;;;;;;1.95;0.40;;;;;;;4.59;56.72;100468.94;5022018;28;20292;-70
2023/04/11 03:15:02;;;;;;;2.60;0.68;;;;;;;4.15;58.08;100466.38;5026049;28;20041;-68
2023/04/11 03:17:28;;;;;;;8.93;0.40;;;;;;;4.59;57.25;100461.19;5025486;28;20047;-71
2023/04/11 03:19:53;;;;;;;4.35;0.70;;;;;;;4.72;56.50;100472.97;5026747;28;20030;-73
2023/04/11 03:22:22;;;;;;;4.90;0.40;;;;;;;4.29;58.06;100468.69;5031578;28;20037;-73
2023/04/11 03:24:48;;;;;;;5.65;0.65;;;;;;;3.98;58.59;100466.72;5022258;28;20130;-70
2023/04/11 03:27:15;;;;;;;2.83;0.60;;;;;;;3.97;58.76;100461.56;5011425;28;20394;-70
2023/04/11 03:29:43;;;;;;;2.28;0.98;;;;;;;4.28;58.34;100474.75;5022464;28;20044;-70
2023/04/11 03:32:17;;;;;;;7.18;0.40;;;;;;;4.59;57.13;100471.53;5012005;28;20037;-73
2023/04/11 03:34:43;;;;;;;19.90;2.15;;;;;;;4.67;56.86;100466.19;5024787;28;20047;-68
2023/04/11 03:37:10;;;;;;;3.55;0.88;;;;;;;4.45;56.95;100478.72;5009068;28;20029;-68
2023/04/11 03:39:37;;;;;;;3.35;0.20;;;;;;;4.63;57.08;100465.38;5007947;28;20087;-69
2023/04/11 03:42:03;;;;;;;7.88;0.45;;;;;;;4.19;57.97;100467.19;5029075;28;20032;-72
2023/04/11 03:44:29;;;;;;;2.25;0.55;;;;;;;4.37;57.96;100471.97;5027052;28;20041;-64
2023/04/11 03:46:55;;;;;;;5.05;1.02;;;;;;;4.45;57.84;100468.38;5023013;28;20186;-65
2023/04/11 03:49:24;;;;;;;3.63;1.05;;;;;;;4.37;57.86;100465.97;5025144;28;20281;-66
2023/04/11 03:51:53;;;;;;;6.22;0.57;;;;;;;4.04;59.23;100473.50;5022527;28;20029;-65
2023/04/11 03:54:19;;;;;;;2.92;0.50;;;;;;;4.31;59.16;100477.28;5026711;28;20447;-65
2023/04/11 03:56:45;;;;;;;8.98;1.65;;;;;;;4.17;59.54;100482.72;5026329;28;20021;-64
2023/04/11 03:59:17;;;;;;;5.35;0.90;;;;;;;4.23;59.42;100476.59;5025797;28;20072;-66
2023/04/11 04:01:57;;;;;;;3.40;0.90;;;;;;;3.74;60.96;100490.44;5022304;28;20036;-63
2023/04/11 04:04:23;;;;;;;8.88;0.60;;;;;;;4.56;59.17;100487.13;5022865;28;20044;-65
2023/04/11 04:06:58;;;;;;;6.95;0.90;;;;;;;3.99;60.63;100491.69;5023977;28;20036;-66
2023/04/11 04:09:32;;;;;;;2.58;0.22;;;;;;;4.32;59.50;100489.34;5018539;28;20036;-71
2023/04/11 04:11:57;;;;;;;3.70;0.45;;;;;;;4.04;60.53;100483.84;5018992;28;20372;-69
2023/04/11 04:14:33;;;;;;;1.25;0.20;;;;;;;4.41;59.45;100483.13;5023373;28;20036;-69
2023/04/11 04:16:59;;;;;;;6.70;0.30;;;;;;;4.64;58.58;100487.81;5039974;28;20596;-69
2023/04/11 04:19:27;;;;;;;5.80;0.63;;;;;;;4.66;58.52;100486.06;5024939;28;20422;-69
2023/04/11 04:21:52;;;;;;;5.18;0.32;;;;;;;4.37;59.30;100490.09;5023974;28;20064;-68
2023/04/11 04:24:19;;;;;;;0.80;0.15;;;;;;;4.37;59.05;100477.16;5003775;28;20125;-70
2023/04/11 04:27:12;;;;;;;0.60;0.20;;;;;;;4.43;58.77;100479.63;5039772;28;20029;-72
2023/04/11 04:29:48;;;;;;;1.05;0.20;;;;;;;4.37;58.93;100481.50;5014385;28;20039;-71
2023/04/11 04:32:21;;;;;;;3.28;0.25;;;;;;;4.39;58.77;100479.72;5005276;28;20186;-72
2023/04/11 04:34:53;;;;;;;1.63;0.17;;;;;;;4.52;58.47;100485.47;4991567;28;20110;-71
2023/04/11 04:37:26;;;;;;;5.72;0.30;;;;;;;4.36;58.91;100482.34;5023449;28;20029;-75
2023/04/11 04:40:06;;;;;;;1.48;0.30;;;;;;;4.43;58.56;100484.81;5004469;28;20085;-73
2023/04/11 04:42:35;;;;;;;2.47;0.10;;;;;;;4.66;58.19;100485.22;5025096;28;20037;-73
2023/04/11 04:45:03;;;;;;;0.70;0.20;;;;;;;4.63;58.15;100488.69;4990765;28;20045;-70
2023/04/11 04:47:31;;;;;;;2.53;0.10;;;;;;;4.51;58.95;100494.13;5016073;28;20112;-73
2023/04/11 04:49:57;;;;;;;3.67;0.22;;;;;;;4.59;58.55;100498.28;5022512;28;20037;-73
2023/04/11 04:52:27;;;;;;;3.15;0.10;;;;;;;4.37;59.16;100491.84;5004628;28;20138;-71
2023/04/11 04:54:56;;;;;;;3.05;0.10;;;;;;;4.14;60.15;100508.66;5023814;28;20472;-71
2023/04/11 04:57:27;;;;;;;2.45;0.20;;;;;;;4.07;60.65;100494.13;5022940;28;20468;-69
2023/04/11 04:59:53;;;;;;;3.50;0.82;;;;;;;4.24;60.07;100495.56;5023884;28;20582;-68
2023/04/11 05:02:20;;;;;;;1.65;0.50;;;;;;;4.52;59.41;100495.81;5021268;28;20044;-68
2023/04/11 05:04:50;;;;;;;1.17;0.30;;;;;;;4.68;58.50;100501.56;5020977;28;20040;-68
2023/04/11 05:07:17;;;;;;;2.28;0.20;;;;;;;4.49;59.59;100511.44;5021320;28;20143;-69
2023/04/11 05:09:47;;;;;;;0.80;0.27;;;;;;;4.08;60.77;100521.72;5021273;28;20379;-66
2023/04/11 05:12:19;;;;;;;5.82;0.70;;;;;;;4.45;59.69;100502.88;5023600;28;20033;-66
2023/04/11 05:14:46;;;;;;;3.15;0.50;;;;;;;4.04;60.76;100506.28;5005621;28;20493;-69
2023/04/11 05:17:12;;;;;;;3.38;0.80;;;;;;;3.93;60.60;100512.47;5022036;28;20106;-68
2023/04/11 05:19:38;;;;;;;3.08;0.32;;;;;;;4.45;59.53;100510.63;5004268;28;20040;-67
2023/04/11 05:22:04;;;;;;;2.67;0.40;;;;;;;4.30;59.07;100511.81;5007304;28;20223;-71
2023/04/11 05:24:33;;;;;;;2.92;0.35;;;;;;;4.59;57.95;100503.44;5005432;28;20444;-66
2023/04/11 05:27:00;;;;;;;2.70;0.93;;;;;;;4.67;58.17;100516.22;5009036;28;20031;-69
2023/04/11 05:29:26;;;;;;;1.77;0.43;;;;;;;4.47;58.82;100508.88;5021091;28;20041;-70
2023/04/11 05:31:52;;;;;;;4.43;0.57;;;;;;;4.79;58.31;100515.97;5008134;28;20048;-69
2023/04/11 05:34:18;;;;;;;5.22;0.85;;;;;;;4.71;58.56;100512.69;5005391;28;20060;-72
2023/04/11 05:36:46;;;;;;;3.42;0.73;;;;;;;4.47;60.07;100518.38;5022302;28;20122;-73
2023/04/11 05:39:12;;;;;;;4.38;0.88;;;;;;;4.83;59.34;100516.72;5024613;28;20055;-70
2023/04/11 05:41:38;;;;;;;3.65;1.08;;;;;;;4.93;58.98;100518.28;5021883;28;20246;-69
2023/04/11 05:44:04;;;;;;;2.75;0.80;;;;;;;4.95;59.13;100526.03;5015165;28;20115;-70
2023/04/11 05:46:31;;;;;;;3.30;0.82;;;;;;;5.03;59.16;100529.28;5022642;28;20509;-66
2023/04/11 05:48:57;;;;;;;2.28;0.82;;;;;;;4.90;59.20;100523.53;5006600;28;20056;-68
2023/04/11 05:51:23;;;;;;;7.18;0.80;;;;;;;4.59;59.47;100538.84;5022732;28;20112;-69
2023/04/11 05:53:49;;;;;;;3.08;0.75;;;;;;;4.90;58.84;100535.63;5039445;28;20033;-68
2023/04/11 05:56:14;;;;;;;5.97;0.60;;;;;;;5.41;57.47;100541.38;5017635;28;20056;-68
2023/04/11 05:58:42;;;;;;;5.43;0.93;;;;;;;5.02;58.46;100537.94;5038547;28;20087;-69
2023/04/11 06:01:11;;;;;;;1.58;0.43;;;;;;;5.24;57.51;100544.34;5015210;28;20029;-67
2023/04/11 06:03:37;;;;;;;3.45;0.40;;;;;;;4.80;58.71;100548.72;5020159;28;20224;-66
2023/04/11 06:06:02;;;;;;;2.92;0.70;;;;;;;4.34;59.17;100544.50;5039531;28;20041;-65
2023/04/11 06:08:28;;;;;;;2.67;0.55;;;;;;;4.71;58.55;100559.28;5025953;28;20037;-69
2023/04/11 06:10:54;;;;;;;4.82;0.52;;;;;;;4.32;59.43;100559.19;5023573;28;20378;-67
2023/04/11 06:13:20;;;;;;;3.25;0.63;;;;;;;4.79;58.85;100562.56;5023342;28;21447;-67
2023/04/11 06:15:45;;;;;;;0.70;0.20;;;;;;;4.02;59.44;100566.63;5022153;28;20606;-68
2023/04/11 06:18:12;;;;;;;0.70;0.40;;;;;;;4.06;59.46;100574.34;5023706;28;20048;-68
2023/04/11 06:20:37;;;;;;;0.77;0.32;;;;;;;4.23;58.61;100556.78;5021212;28;20070;-68
2023/04/11 06:23:03;;;;;;;4.72;0.50;;;;;;;4.59;58.67;100554.38;5004246;28;20029;-68
2023/04/11 06:25:30;;;;;;;1.85;0.35;;;;;;;4.90;57.58;100554.63;5022128;28;20033;-69
2023/04/11 06:27:55;;;;;;;3.63;0.65;;;;;;;4.36;58.73;100568.63;5024185;28;20192;-66
2023/04/11 06:30:21;;;;;;;4.43;0.80;;;;;;;4.58;58.57;100566.44;5018175;28;20589;-67
2023/04/11 06:32:48;;;;;;;6.38;0.93;;;;;;;4.96;57.76;100570.00;5024672;28;20280;-67
2023/04/11 06:35:14;;;;;;;3.83;1.15;;;;;;;5.14;57.70;100562.72;5012730;28;20044;-67
2023/04/11 06:37:41;;;;;;;7.25;1.27;;;;;;;5.20;58.11;100562.59;5023279;28;20408;-67
2023/04/11 06:40:07;;;;;;;3.92;1.00;;;;;;;4.74;58.41;100563.53;5023071;28;20043;-70
2023/04/11 06:42:34;;;;;;;4.25;1.17;;;;;;;5.19;58.50;100561.75;5004739;28;20075;-69
2023/04/11 06:45:00;;;;;;;8.77;1.55;;;;;;;5.36;57.46;100563.09;5025040;28;20068;-69
2023/04/11 06:47:26;;;;;;;6.53;1.33;;;;;;;5.47;57.91;100566.28;5020243;28;20024;-70
2023/04/11 06:49:52;;;;;;;7.82;1.20;;;;;;;5.85;57.01;100557.56;5026101;28;20946;-73
2023/04/11 06:52:18;;;;;;;15.05;1.60;;;;;;;6.37;56.08;100560.56;5029478;28;20557;-74
2023/04/11 06:54:45;;;;;;;6.13;1.33;;;;;;;6.24;55.94;100560.03;5029965;28;20047;-71
2023/04/11 06:57:12;;;;;;;10.45;1.20;;;;;;;6.43;55.55;100575.97;5030147;28;20032;-71
2023/04/11 06:59:38;;;;;;;4.70;1.33;;;;;;;5.82;56.10;100573.22;5027816;28;20044;-71
2023/04/11 07:02:04;;;;;;;6.28;0.77;;;;;;;5.09;58.52;100588.72;5027857;28;20033;-70
2023/04/11 07:04:30;;;;;;;6.47;1.27;;;;;;;5.19;58.43;100592.84;5039914;28;20045;-67
2023/04/11 07:06:56;;;;;;;6.88;1.30;;;;;;;4.80;59.10;100594.50;5025730;28;20488;-68
2023/04/11 07:09:21;;;;;;;1.45;0.20;;;;;;;3.90;60.22;100600.47;5024219;28;20417;-68
2023/04/11 07:11:47;;;;;;;4.25;0.40;;;;;;;4.19;59.61;100607.72;5024555;28;20033;-68
2023/04/11 07:14:13;;;;;;;3.45;0.30;;;;;;;4.50;58.35;100599.41;5024393;28;20124;-69
2023/04/11 07:16:39;;;;;;;2.22;0.15;;;;;;;3.99;59.16;100599.47;5023044;28;20040;-68
2023/04/11 07:19:04;;;;;;;5.75;0.50;;;;;;;4.45;58.15;100598.63;5028051;28;20032;-67
2023/04/11 07:21:31;;;;;;;2.53;0.20;;;;;;;3.91;59.04;100606.47;5026875;28;20043;-68
2023/04/11 07:23:56;;;;;;;2.03;0.10;;;;;;;4.60;57.61;100600.91;5028098;28;20037;-69
2023/04/11 07:26:22;;;;;;;5.40;0.17;;;;;;;4.85;57.28;100605.59;5024532;28;20032;-69
2023/04/11 07:28:48;;;;;;;3.45;0.50;;;;;;;4.72;57.91;100612.78;5026848;28;20082;-68
2023/04/11 07:31:14;;;;;;;6.45;0.40;;;;;;;4.45;58.77;100600.34;5009859;28;20321;-68
2023/04/11 07:33:42;;;;;;;2.50;0.10;;;;;;;4.86;57.51;100599.56;5007652;28;20028;-69
2023/04/11 07:36:08;;;;;;;3.70;0.20;;;;;;;5.25;56.23;100603.03;5024623;28;20410;-68
2023/04/11 07:38:36;;;;;;;3.83;0.10;;;;;;;7.03;52.86;100602.84;5022806;28;20036;-69
2023/04/11 07:41:03;;;;;;;2.10;0.20;;;;;;;6.47;52.16;100603.56;5022608;28;20045;-69
2023/04/11 07:43:30;;;;;;;6.13;0.30;;;;;;;5.23;54.26;100617.81;5019852;28;20489;-68
2023/04/11 07:45:57;;;;;;;1.73;0.30;;;;;;;4.17;57.44;100625.00;5018743;28;20041;-68
2023/04/11 07:48:24;;;;;;;4.22;0.10;;;;;;;4.24;56.91;100633.50;5019477;28;20072;-68
2023/04/11 07:50:50;;;;;;;2.75;0.17;;;;;;;4.35;57.39;100635.91;5020845;28;20041;-69
2023/04/11 07:53:16;;;;;;;2.25;0.10;;;;;;;4.53;57.58;100651.09;5020298;28;20033;-69
2023/04/11 07:55:42;;;;;;;3.20;0.10;;;;;;;5.05;55.89;100642.34;5021022;28;20173;-68
2023/04/11 07:58:07;;;;;;;2.65;0.00;;;;;;;5.09;56.20;100656.09;5026194;28;20828;-69
2023/04/11 08:00:34;;;;;;;1.90;0.10;;;;;;;5.11;54.61;100664.69;5022489;28;20715;-68
2023/04/11 08:03:03;;;;;;;6.20;0.10;;;;;;;4.76;56.78;100663.59;5021010;28;20354;-67
2023/04/11 08:05:33;;;;;;;0.45;0.00;;;;;;;4.79;56.44;100673.91;5025287;28;20041;-67
2023/04/11 08:07:58;;;;;;;4.38;0.30;;;;;;;4.60;56.61;100680.31;5022453;28;20043;-67
2023/04/11 08:10:24;;;;;;;6.00;0.30;;;;;;;4.13;57.91;100700.94;5015877;28;20040;-67
2023/04/11 08:12:50;;;;;;;2.53;0.00;;;;;;;4.14;57.55;100706.97;5024784;28;20549;-68
2023/04/11 08:15:16;;;;;;;3.20;0.13;;;;;;;4.46;57.16;100705.59;5019971;28;20037;-68
2023/04/11 08:17:42;;;;;;;8.10;0.47;;;;;;;4.48;57.54;100716.78;5024078;28;20037;-69
2023/04/11 08:20:10;;;;;;;0.10;0.00;;;;;;;4.42;56.82;100728.06;5023733;28;20638;-68
2023/04/11 08:22:37;;;;;;;3.33;0.00;;;;;;;3.97;56.81;100726.19;5019655;28;20036;-68
2023/04/11 08:25:04;;;;;;;0.10;0.10;;;;;;;4.79;55.04;100728.31;5007502;28;20037;-67
2023/04/11 08:27:30;;;;;;;2.33;0.00;;;;;;;4.16;56.05;100733.66;5019814;28;20129;-69
2023/04/11 08:29:57;;;;;;;5.43;0.10;;;;;;;4.46;55.77;100744.41;5021974;28;20495;-68
2023/04/11 08:32:23;;;;;;;1.95;0.15;;;;;;;4.49;56.00;100746.94;5020469;28;20033;-65
2023/04/11 08:34:48;;;;;;;2.38;0.00;;;;;;;4.51;56.70;100747.78;5005513;28;20465;-68
2023/04/11 08:37:14;;;;;;;0.50;0.10;;;;;;;4.09;57.40;100751.00;5025808;28;20036;-68
2023/04/11 08:39:39;;;;;;;2.13;0.20;;;;;;;4.41;56.94;100742.75;5017343;28;20397;-68
2023/04/11 08:42:05;;;;;;;5.57;0.20;;;;;;;4.66;56.73;100751.84;5025270;28;20037;-67
2023/04/11 08:44:31;;;;;;;0.77;0.00;;;;;;;4.36;57.32;100760.09;5021205;28;20033;-66
2023/04/11 08:46:56;;;;;;;2.88;0.10;;;;;;;4.24;57.08;100757.69;5022190;28;20513;-66
2023/04/11 08:49:21;;;;;;;0.40;0.10;;;;;;;4.47;57.13;100761.66;5021075;28;21033;-68
2023/04/11 08:51:52;;;;;;;1.05;0.10;;;;;;;4.54;57.17;100765.84;5020449;28;20532;-67
2023/04/11 08:54:18;;;;;;;1.85;0.00;;;;;;;4.78;56.61;100760.25;5022824;28;20045;-68
2023/04/11 08:56:43;;;;;;;1.52;0.10;;;;;;;5.37;55.52;100769.53;5021515;28;20075;-67
2023/04/11 08:59:09;;;;;;;2.78;0.25;;;;;;;5.37;55.08;100753.97;5025267;28;20662;-69
2023/04/11 09:01:36;;;;;;;1.55;0.25;;;;;;;5.25;55.46;100766.31;5020358;28;20052;-68
2023/04/11 09:04:04;;;;;;;4.18;0.52;;;;;;;4.75;56.89;100772.41;5021454;28;20771;-69
2023/04/11 09:06:31;;;;;;;0.35;0.00;;;;;;;5.56;55.55;100772.63;5018240;28;20185;-66
2023/04/11 09:09:04;;;;;;;1.35;0.10;;;;;;;5.74;54.76;100777.41;5022797;28;20654;-67
2023/04/11 09:11:30;;;;;;;5.82;0.85;;;;;;;5.65;54.43;100775.88;5035524;28;20044;-68
2023/04/11 09:14:09;;;;;;;0.57;0.00;;;;;;;6.03;53.79;100779.38;5020741;28;20035;-68
2023/04/11 09:16:35;;;;;;;0.47;0.00;;;;;;;5.77;54.32;100781.69;5020921;28;20519;-68
2023/04/11 09:19:01;;;;;;;0.85;0.25;;;;;;;6.39;53.07;100786.38;5023816;28;20679;-68
2023/04/11 09:21:28;;;;;;;0.63;0.10;;;;;;;6.05;52.41;100790.56;5021746;28;20037;-69
2023/04/11 09:24:12;;;;;;;1.83;0.10;;;;;;;6.63;52.21;100796.16;5025399;28;20195;-69
2023/04/11 09:26:37;;;;;;;2.97;0.30;;;;;;;6.31;52.57;100789.16;5021022;28;20089;-68
2023/04/11 09:29:03;;;;;;;0.43;0.08;;;;;;;6.65;52.18;100798.72;5027344;28;20025;-69
2023/04/11 09:31:43;;;;;;;1.90;0.30;;;;;;;6.38;51.73;100800.25;5021207;28;20476;-69
2023/04/11 09:34:10;;;;;;;2.13;0.10;;;;;;;5.98;53.07;100801.13;5027227;28;20398;-69
2023/04/11 09:36:35;;;;;;;2.20;0.10;;;;;;;5.78;53.38;100805.00;5020975;28;20021;-69
2023/04/11 09:39:16;;;;;;;5.88;0.57;;;;;;;5.80;54.51;100817.94;5024580;28;20086;-70
2023/04/11 09:41:41;;;;;;;3.80;0.20;;;;;;;5.55;54.92;100807.22;5022196;28;20255;-68
2023/04/11 09:44:07;;;;;;;2.03;0.30;;;;;;;6.24;53.32;100804.00;5026001;28;20099;-70
2023/04/11 09:46:32;;;;;;;0.98;0.10;;;;;;;6.35;53.07;100800.31;5022896;28;20020;-69
2023/04/11 09:49:00;;;;;;;2.40;0.10;;;;;;;6.68;52.69;100798.66;5009243;28;20083;-69
2023/04/11 09:51:26;;;;;;;1.80;0.20;;;;;;;6.30;52.32;100803.00;5021899;28;20036;-70
2023/04/11 09:53:51;;;;;;;6.63;0.30;;;;;;;6.90;52.12;100806.75;5023069;28;20468;-70
2023/04/11 09:56:17;;;;;;;0.95;0.10;;;;;;;7.44;51.15;100805.31;5024679;28;20043;-70
2023/04/11 09:58:42;;;;;;;1.92;0.13;;;;;;;8.02;50.74;100806.25;5038051;28;20633;-69
2023/04/11 10:01:09;;;;;;;2.78;0.20;;;;;;;8.00;50.27;100815.00;5007929;28;20453;-69
2023/04/11 10:03:37;;;;;;;6.22;0.55;;;;;;;7.30;50.22;100803.94;5022427;28;20028;-69
2023/04/11 10:06:15;;;;;;;3.50;0.68;;;;;;;7.21;50.95;100806.78;5025093;28;20043;-70
2023/04/11 10:08:41;;;;;;;6.95;0.20;;;;;;;7.89;49.34;100800.56;5036413;28;20028;-68
2023/04/11 10:11:13;;;;;;;10.65;1.30;;;;;;;7.99;48.70;100800.28;5025065;28;20045;-69
2023/04/11 10:13:45;;;;;;;3.53;0.50;;;;;;;7.26;50.17;100801.47;5024299;28;20033;-70
2023/04/11 10:16:12;;;;;;;4.90;1.00;;;;;;;6.86;51.07;100803.41;5023069;28;20134;-69
2023/04/11 10:18:49;;;;;;;11.93;1.27;;;;;;;7.03;50.02;100818.53;5023151;28;20391;-70
2023/04/11 10:21:33;;;;;;;7.97;0.80;;;;;;;6.76;49.40;100812.31;5022165;28;20114;-70
2023/04/11 10:24:19;;;;;;;4.85;0.55;;;;;;;6.99;48.44;100813.47;5023245;28;20040;-70
2023/04/11 10:26:56;;;;;;;6.63;1.17;;;;;;;7.58;47.58;100811.03;5025271;28;20108;-71
2023/04/11 10:29:39;;;;;;;6.10;1.00;;;;;;;7.41;47.71;100811.44;5026935;28;20127;-70
2023/04/11 10:32:14;;;;;;;5.70;0.50;;;;;;;8.19;46.47;100817.91;5029345;28;20493;-70
2023/04/11 10:35:00;;;;;;;7.57;2.33;;;;;;;7.31;48.02;100823.88;5023447;28;20146;-69
2023/04/11 10:37:32;;;;;;;12.88;1.17;;;;;;;8.08;48.17;100821.69;5015181;28;20048;-69
2023/04/11 10:40:04;;;;;;;8.35;1.13;;;;;;;7.66;46.73;100818.59;5027652;28;20134;-70
2023/04/11 10:42:32;;;;;;;8.00;1.30;;;;;;;8.49;45.97;100823.88;5025252;28;20040;-70
2023/04/11 10:45:20;;;;;;;7.70;0.82;;;;;;;8.39;45.46;100831.16;5027669;28;20036;-70
2023/04/11 10:47:55;;;;;;;4.85;1.08;;;;;;;7.54;47.44;100830.19;5023950;28;20103;-69
2023/04/11 10:50:27;;;;;;;7.57;0.80;;;;;;;7.89;46.82;100829.19;5027378;28;20043;-69
2023/04/11 10:52:57;;;;;;;12.57;2.15;;;;;;;8.00;47.21;100834.06;5022555;28;20036;-70
2023/04/11 10:55:28;;;;;;;2.47;0.88;;;;;;;8.35;44.87;100827.78;5028023;28;20063;-71
2023/04/11 10:58:18;;;;;;;7.47;0.73;;;;;;;8.34;45.29;100833.06;5025886;28;20165;-71
2023/04/11 11:00:50;;;;;;;6.93;1.27;;;;;;;8.05;44.28;100845.22;5024380;28;20068;-70
2023/04/11 11:03:15;;;;;;;;;;;;;;;7.63;45.32;100839.50;5042442;28;20094;-69
2023/04/11 11:05:41;;;;;;;12.35;1.33;;;;;;;7.97;45.02;100844.56;5007614;28;19921;-70
2023/04/11 11:08:07;;;;;;;5.20;0.65;;;;;;;8.27;44.78;100849.75;5027253;28;20569;-70
2023/04/11 11:10:36;;;;;;;8.02;1.20;;;;;;;8.25;45.06;100851.53;5027739;28;20136;-70
2023/04/11 11:13:03;;;;;;;6.78;0.88;;;;;;;7.82;45.84;100845.03;5025782;28;20044;-69
2023/04/11 11:15:29;;;;;;;4.25;1.05;;;;;;;7.29;46.42;100874.19;5022996;28;20047;-70
2023/04/11 11:17:54;;;;;;;3.65;0.70;;;;;;;6.59;48.64;100856.84;5005970;28;20057;-70
2023/04/11 11:20:20;;;;;;;7.53;0.68;;;;;;;6.16;49.61;100873.38;5024806;28;20128;-70
2023/04/11 11:23:03;;;;;;;2.67;0.57;;;;;;;6.84;48.81;100885.72;5021043;28;20468;-69
2023/04/11 11:25:29;;;;;;;5.72;0.82;;;;;;;6.38;49.07;100902.34;5023068;28;20701;-69
2023/04/11 11:28:08;;;;;;;4.38;1.20;;;;;;;5.76;50.13;100887.16;5022046;28;20030;-68
2023/04/11 11:30:37;;;;;;;4.30;0.55;;;;;;;6.84;49.17;100888.31;5018390;28;20040;-70
2023/04/11 11:33:17;;;;;;;3.88;0.57;;;;;;;7.93;47.01;100888.03;5041845;28;20031;-69
2023/04/11 11:35:49;;;;;;;2.67;0.45;;;;;;;8.38;46.22;100888.50;5003607;28;20106;-69
2023/04/11 11:38:16;;;;;;;10.43;0.50;;;;;;;8.20;45.90;100897.72;5025328;28;20115;-70